createdAt,value
2017-03-19T00:00:06.069Z,1002.19
2017-03-19T00:01:15.020Z,1002.18
2017-03-19T00:02:24.275Z,1002.24
2017-03-19T00:03:33.226Z,1002.22
2017-03-19T00:04:42.182Z,1002.23
2017-03-19T00:05:51.149Z,1002.27
2017-03-19T00:07:00.094Z,1002.28
2017-03-19T00:08:09.350Z,1002.37
2017-03-19T00:09:18.310Z,1002.4
2017-03-19T00:10:27.268Z,1002.4
2017-03-19T00:11:36.229Z,1002.41
2017-03-19T00:12:45.184Z,1002.51
2017-03-19T00:13:54.392Z,1002.49
2017-03-19T00:15:03.364Z,1002.51
2017-03-19T00:16:12.322Z,1002.56
2017-03-19T00:17:21.277Z,1002.51
2017-03-19T00:18:30.226Z,1002.48
2017-03-19T00:19:39.484Z,1002.46
2017-03-19T00:20:48.474Z,1002.49
2017-03-19T00:21:57.425Z,1002.56
2017-03-19T00:23:06.393Z,1002.5
2017-03-19T00:24:15.382Z,1002.5
2017-03-19T00:25:24.611Z,1002.45
2017-03-19T00:26:33.653Z,1002.5
2017-03-19T00:27:42.698Z,1002.46
2017-03-19T00:28:51.655Z,1002.54
2017-03-19T00:30:00.608Z,1002.52
2017-03-19T00:31:09.867Z,1002.52
2017-03-19T00:32:18.818Z,1002.53
2017-03-19T00:33:27.859Z,1002.54
2017-03-19T00:34:36.819Z,1002.54
2017-03-19T00:35:45.766Z,1002.54
2017-03-19T00:36:54.975Z,1002.59
2017-03-19T00:38:03.929Z,1002.6
2017-03-19T00:39:13.211Z,1002.6
2017-03-19T00:40:22.171Z,1002.59
2017-03-19T00:41:31.126Z,1002.63
2017-03-19T00:42:40.707Z,1002.65
2017-03-19T00:43:49.670Z,1002.63
2017-03-19T00:44:58.628Z,1002.57
2017-03-19T00:46:07.594Z,1002.62
2017-03-19T00:47:16.549Z,1002.56
2017-03-19T00:48:25.807Z,1002.53
2017-03-19T00:49:34.768Z,1002.54
2017-03-19T00:50:43.723Z,1002.54
2017-03-19T00:51:52.675Z,1002.57
2017-03-19T00:53:01.628Z,1002.6
2017-03-19T00:54:10.837Z,1002.57
2017-03-19T00:55:19.797Z,1002.53
2017-03-19T00:56:28.752Z,1002.62
2017-03-19T00:57:37.702Z,1002.64
2017-03-19T00:58:46.655Z,1002.63
2017-03-19T00:59:55.866Z,1002.68
2017-03-19T01:01:04.822Z,1002.73
2017-03-19T01:02:13.803Z,1002.76
2017-03-19T01:03:22.756Z,1002.72
2017-03-19T01:04:31.710Z,1002.81
2017-03-19T01:05:40.983Z,1002.8
2017-03-19T01:06:49.938Z,1002.74
2017-03-19T01:07:58.893Z,1002.76
2017-03-19T01:09:07.855Z,1002.82
2017-03-19T01:10:16.822Z,1002.86
2017-03-19T01:11:26.082Z,1002.83
2017-03-19T01:12:35.082Z,1002.8
2017-03-19T01:13:44.036Z,1002.87
2017-03-19T01:14:53.074Z,1002.9
2017-03-19T01:16:02.042Z,1002.93
2017-03-19T01:17:11.293Z,1002.92
2017-03-19T01:18:20.339Z,1002.91
2017-03-19T01:19:29.950Z,1002.94
2017-03-19T01:20:38.902Z,1002.96
2017-03-19T01:21:47.945Z,1002.91
2017-03-19T01:22:57.199Z,1002.95
2017-03-19T01:24:06.157Z,1002.92
2017-03-19T01:25:15.120Z,1002.93
2017-03-19T01:26:24.078Z,1002.91
2017-03-19T01:27:33.029Z,1002.93
2017-03-19T01:28:42.236Z,1002.96
2017-03-19T01:29:51.196Z,1002.97
2017-03-19T01:31:00.474Z,1002.97
2017-03-19T01:32:09.423Z,1002.97
2017-03-19T01:33:18.375Z,1002.99
2017-03-19T01:34:27.585Z,1003.07
2017-03-19T01:35:36.538Z,1003.07
2017-03-19T01:36:45.488Z,1003.14
2017-03-19T01:37:54.452Z,1003.11
2017-03-19T01:39:03.409Z,1003.1
2017-03-19T01:40:12.673Z,1003.11
2017-03-19T01:41:21.621Z,1003.13
2017-03-19T01:42:30.572Z,1003.1
2017-03-19T01:43:39.525Z,1003.08
2017-03-19T01:44:48.478Z,1003.16
2017-03-19T01:45:57.737Z,1003.17
2017-03-19T01:47:06.692Z,1003.19
2017-03-19T01:48:16.001Z,1003.2
2017-03-19T01:49:24.960Z,1003.16
2017-03-19T01:50:33.921Z,1003.21
2017-03-19T01:51:43.206Z,1003.23
2017-03-19T01:52:52.249Z,1003.19
2017-03-19T01:54:01.203Z,1003.21
2017-03-19T01:55:10.489Z,1003.26
2017-03-19T01:56:19.439Z,1003.28
2017-03-19T01:57:28.642Z,1003.31
2017-03-19T01:58:37.606Z,1003.32
2017-03-19T01:59:46.567Z,1003.36
2017-03-19T02:00:55.531Z,1003.34
2017-03-19T02:02:04.487Z,1003.39
2017-03-19T02:03:14.015Z,1003.43
2017-03-19T02:04:22.971Z,1003.44
2017-03-19T02:05:31.924Z,1003.48
2017-03-19T02:06:40.967Z,1003.49
2017-03-19T02:07:49.925Z,1003.45
2017-03-19T02:08:59.134Z,1003.43
2017-03-19T02:10:08.089Z,1003.42
2017-03-19T02:11:17.065Z,1003.47
2017-03-19T02:12:26.031Z,1003.48
2017-03-19T02:13:35.342Z,1003.49
2017-03-19T02:14:44.687Z,1003.49
2017-03-19T02:15:53.646Z,1003.49
2017-03-19T02:17:02.597Z,1003.54
2017-03-19T02:18:11.549Z,1003.6
2017-03-19T02:19:20.506Z,1003.57
2017-03-19T02:20:29.767Z,1003.6
2017-03-19T02:21:38.717Z,1003.53
2017-03-19T02:22:47.997Z,1003.52
2017-03-19T02:23:56.951Z,1003.55
2017-03-19T02:25:05.903Z,1003.62
2017-03-19T02:26:15.157Z,1003.65
2017-03-19T02:27:24.113Z,1003.6
2017-03-19T02:28:33.066Z,1003.62
2017-03-19T02:29:42.023Z,1003.56
2017-03-19T02:30:50.973Z,1003.58
2017-03-19T02:32:00.223Z,1003.57
2017-03-19T02:33:09.177Z,1003.6
2017-03-19T02:34:18.135Z,1003.58
2017-03-19T02:35:27.125Z,1003.63
2017-03-19T02:36:36.113Z,1003.61
2017-03-19T02:37:45.369Z,1003.65
2017-03-19T02:38:54.412Z,1003.64
2017-03-19T02:40:03.366Z,1003.63
2017-03-19T02:41:12.314Z,1003.64
2017-03-19T02:42:21.273Z,1003.67
2017-03-19T02:43:30.542Z,1003.64
2017-03-19T02:44:39.496Z,1003.74
2017-03-19T02:45:48.452Z,1003.69
2017-03-19T02:46:57.499Z,1003.72
2017-03-19T02:48:06.480Z,1003.73
2017-03-19T02:49:15.827Z,1003.72
2017-03-19T02:50:24.786Z,1003.76
2017-03-19T02:51:33.741Z,1003.72
2017-03-19T02:52:42.696Z,1003.78
2017-03-19T02:53:51.651Z,1003.75
2017-03-19T02:55:00.911Z,1003.78
2017-03-19T02:56:09.865Z,1003.79
2017-03-19T02:57:18.902Z,1003.77
2017-03-19T02:58:28.190Z,1003.82
2017-03-19T02:59:37.149Z,1003.8
2017-03-19T03:00:46.354Z,1003.78
2017-03-19T03:01:55.305Z,1003.79
2017-03-19T03:03:04.259Z,1003.77
2017-03-19T03:04:13.216Z,1003.79
2017-03-19T03:05:22.177Z,1003.83
2017-03-19T03:06:31.387Z,1003.81
2017-03-19T03:07:40.343Z,1003.76
2017-03-19T03:08:49.304Z,1003.81
2017-03-19T03:09:58.271Z,1003.84
2017-03-19T03:11:07.229Z,1003.87
2017-03-19T03:12:16.434Z,1003.85
2017-03-19T03:13:25.388Z,1003.88
2017-03-19T03:14:34.342Z,1003.84
2017-03-19T03:15:43.327Z,1003.88
2017-03-19T03:16:52.366Z,1003.85
2017-03-19T03:18:01.616Z,1003.86
2017-03-19T03:19:10.573Z,1003.88
2017-03-19T03:20:19.540Z,1003.85
2017-03-19T03:21:28.831Z,1003.84
2017-03-19T03:22:37.785Z,1003.84
2017-03-19T03:23:46.995Z,1003.85
2017-03-19T03:24:55.948Z,1003.85
2017-03-19T03:26:04.900Z,1003.85
2017-03-19T03:27:13.860Z,1003.89
2017-03-19T03:28:22.814Z,1003.88
2017-03-19T03:29:32.075Z,1003.95
2017-03-19T03:30:41.029Z,1003.9
2017-03-19T03:31:49.988Z,1003.89
2017-03-19T03:32:59.031Z,1003.92
2017-03-19T03:34:07.992Z,1003.9
2017-03-19T03:35:17.577Z,1003.94
2017-03-19T03:36:26.853Z,1003.97
2017-03-19T03:37:35.801Z,1003.98
2017-03-19T03:38:44.760Z,1003.96
2017-03-19T03:39:53.719Z,1004.01
2017-03-19T03:41:02.921Z,1003.98
2017-03-19T03:42:11.874Z,1004.07
2017-03-19T03:43:20.832Z,1004.02
2017-03-19T03:44:29.792Z,1004.03
2017-03-19T03:45:38.746Z,1003.99
2017-03-19T03:46:48.027Z,1004.02
2017-03-19T03:47:56.992Z,1004.09
2017-03-19T03:49:05.980Z,1004.12
2017-03-19T03:50:14.946Z,1004.05
2017-03-19T03:51:23.893Z,1004.03
2017-03-19T03:52:33.097Z,1004.04
2017-03-19T03:53:42.057Z,1004.04
2017-03-19T03:54:51.004Z,1004.03
2017-03-19T03:56:00.286Z,1004.02
2017-03-19T03:57:09.237Z,1004.09
2017-03-19T03:58:18.764Z,1004.07
2017-03-19T03:59:27.734Z,1004.15
2017-03-19T04:00:37.012Z,1004.15
2017-03-19T04:01:45.961Z,1004.12
2017-03-19T04:02:54.911Z,1004.14
2017-03-19T04:04:04.212Z,1004.12
2017-03-19T04:05:13.180Z,1004.1
2017-03-19T04:06:22.132Z,1004.11
2017-03-19T04:07:31.085Z,1004.08
2017-03-19T04:08:40.035Z,1004.05
2017-03-19T04:09:49.335Z,1004.08
2017-03-19T04:10:58.305Z,1004.13
2017-03-19T04:12:07.261Z,1004.11
2017-03-19T04:13:16.216Z,1004.14
2017-03-19T04:14:25.174Z,1004.13
2017-03-19T04:15:34.428Z,1004.11
2017-03-19T04:16:43.382Z,1004.1
2017-03-19T04:17:52.336Z,1004.04
2017-03-19T04:19:01.296Z,1004.07
2017-03-19T04:20:10.245Z,1004.09
2017-03-19T04:21:19.584Z,1004.09
2017-03-19T04:22:28.873Z,1004.11
2017-03-19T04:23:38.472Z,1004.12
2017-03-19T04:24:47.439Z,1004.11
2017-03-19T04:25:56.400Z,1004.09
2017-03-19T04:27:05.679Z,1004.05
2017-03-19T04:28:14.956Z,1004.06
2017-03-19T04:29:23.909Z,1004.04
2017-03-19T04:30:33.196Z,1004.04
2017-03-19T04:31:45.268Z,1004.07
2017-03-19T04:32:54.474Z,1004.13
2017-03-19T04:34:03.841Z,1004.16
2017-03-19T04:35:12.799Z,1004.17
2017-03-19T04:36:21.755Z,1004.16
2017-03-19T04:37:31.029Z,1004.2
2017-03-19T04:38:40.302Z,1004.2
2017-03-19T04:39:49.268Z,1004.22
2017-03-19T04:40:58.233Z,1004.22
2017-03-19T04:42:07.270Z,1004.17
2017-03-19T04:43:16.546Z,1004.19
2017-03-19T04:44:25.801Z,1004.18
2017-03-19T04:45:34.769Z,1004.16
2017-03-19T04:46:43.754Z,1004.1
2017-03-19T04:47:52.706Z,1004.12
2017-03-19T04:49:01.990Z,1004.11
2017-03-19T04:50:11.206Z,1004.14
2017-03-19T04:51:20.152Z,1004.14
2017-03-19T04:52:29.100Z,1004.12
2017-03-19T04:53:38.071Z,1004.18
2017-03-19T04:54:47.031Z,1004.23
2017-03-19T04:55:56.286Z,1004.26
2017-03-19T04:57:05.238Z,1004.26
2017-03-19T04:58:14.190Z,1004.28
2017-03-19T04:59:23.146Z,1004.27
2017-03-19T05:00:32.098Z,1004.33
2017-03-19T05:01:41.341Z,1004.3
2017-03-19T05:02:50.292Z,1004.31
2017-03-19T05:03:59.247Z,1004.31
2017-03-19T05:05:08.206Z,1004.32
2017-03-19T05:06:17.192Z,1004.35
2017-03-19T05:07:26.444Z,1004.32
2017-03-19T05:08:35.396Z,1004.27
2017-03-19T05:09:44.353Z,1004.31
2017-03-19T05:10:53.621Z,1004.28
2017-03-19T05:12:02.571Z,1004.33
2017-03-19T05:13:11.845Z,1004.37
2017-03-19T05:14:20.805Z,1004.41
2017-03-19T05:15:29.768Z,1004.43
2017-03-19T05:16:38.728Z,1004.45
2017-03-19T05:17:47.678Z,1004.46
2017-03-19T05:18:56.883Z,1004.53
2017-03-19T05:20:05.834Z,1004.56
2017-03-19T05:21:14.780Z,1004.6
2017-03-19T05:22:23.744Z,1004.57
2017-03-19T05:23:32.698Z,1004.59
2017-03-19T05:24:41.954Z,1004.61
2017-03-19T05:25:50.913Z,1004.66
2017-03-19T05:26:59.958Z,1004.65
2017-03-19T05:28:08.910Z,1004.64
2017-03-19T05:29:17.864Z,1004.63
2017-03-19T05:30:27.128Z,1004.68
2017-03-19T05:31:36.081Z,1004.66
2017-03-19T05:32:45.030Z,1004.66
2017-03-19T05:33:53.992Z,1004.61
2017-03-19T05:35:02.942Z,1004.63
2017-03-19T05:36:12.190Z,1004.67
2017-03-19T05:37:21.141Z,1004.67
2017-03-19T05:38:30.103Z,1004.72
2017-03-19T05:39:39.387Z,1004.74
2017-03-19T05:40:48.338Z,1004.8
2017-03-19T05:41:57.588Z,1004.77
2017-03-19T05:43:06.540Z,1004.79
2017-03-19T05:44:15.496Z,1004.76
2017-03-19T05:45:24.459Z,1004.73
2017-03-19T05:46:33.409Z,1004.78
2017-03-19T05:47:42.666Z,1004.76
2017-03-19T05:48:51.621Z,1004.75
2017-03-19T05:50:00.899Z,1004.79
2017-03-19T05:51:09.853Z,1004.79
2017-03-19T05:52:18.808Z,1004.8
2017-03-19T05:53:28.078Z,1004.85
2017-03-19T05:54:37.361Z,1004.85
2017-03-19T05:55:46.307Z,1004.85
2017-03-19T05:56:55.262Z,1004.84
2017-03-19T05:58:04.220Z,1004.87
2017-03-19T05:59:13.470Z,1004.87
2017-03-19T06:00:22.426Z,1004.81
2017-03-19T06:01:31.696Z,1004.84
2017-03-19T06:02:40.823Z,1004.81
2017-03-19T06:03:49.813Z,1004.77
2017-03-19T06:04:59.078Z,1004.79
2017-03-19T06:06:08.036Z,1004.77
2017-03-19T06:07:16.990Z,1004.79
2017-03-19T06:08:25.950Z,1004.74
2017-03-19T06:09:35.239Z,1004.76
2017-03-19T06:10:44.493Z,1004.76
2017-03-19T06:11:53.444Z,1004.8
2017-03-19T06:13:02.402Z,1004.79
2017-03-19T06:14:11.358Z,1004.79
2017-03-19T06:15:20.313Z,1004.85
2017-03-19T06:16:29.565Z,1004.86
2017-03-19T06:17:38.520Z,1004.86
2017-03-19T06:18:47.808Z,1004.88
2017-03-19T06:19:56.766Z,1004.86
2017-03-19T06:21:05.720Z,1004.84
2017-03-19T06:22:14.969Z,1004.85
2017-03-19T06:23:23.921Z,1004.86
2017-03-19T06:24:32.874Z,1004.85
2017-03-19T06:25:41.833Z,1004.91
2017-03-19T06:26:51.118Z,1004.95
2017-03-19T06:28:00.369Z,1005.01
2017-03-19T06:29:09.318Z,1005.01
2017-03-19T06:30:18.277Z,1005.02
2017-03-19T06:31:27.725Z,1005.01
2017-03-19T06:32:36.676Z,1005.05
2017-03-19T06:33:45.932Z,1005.03
2017-03-19T06:34:54.926Z,1005.05
2017-03-19T06:36:03.883Z,1005.11
2017-03-19T06:37:12.922Z,1005.07
2017-03-19T06:38:21.959Z,1005.05
2017-03-19T06:39:31.539Z,1005.03
2017-03-19T06:40:40.491Z,1005.03
2017-03-19T06:41:49.442Z,1005.05
2017-03-19T06:42:58.390Z,1005.05
2017-03-19T06:44:07.341Z,1005.05
2017-03-19T06:45:16.591Z,1005.08
2017-03-19T06:46:25.543Z,1005.09
2017-03-19T06:47:34.494Z,1005.17
2017-03-19T06:48:43.454Z,1005.16
2017-03-19T06:49:52.418Z,1005.18
2017-03-19T06:51:01.673Z,1005.18
2017-03-19T06:52:10.647Z,1005.16
2017-03-19T06:53:19.605Z,1005.15
2017-03-19T06:54:28.607Z,1005.15
2017-03-19T06:55:37.565Z,1005.16
2017-03-19T06:56:46.817Z,1005.17
2017-03-19T06:57:55.864Z,1005.18
2017-03-19T06:59:04.823Z,1005.14
2017-03-19T07:00:13.779Z,1005.13
2017-03-19T07:01:22.738Z,1005.16
2017-03-19T07:02:32.266Z,1005.12
2017-03-19T07:03:41.230Z,1005.13
2017-03-19T07:04:50.187Z,1005.17
2017-03-19T07:05:59.140Z,1005.18
2017-03-19T07:07:08.088Z,1005.14
2017-03-19T07:08:17.379Z,1005.23
2017-03-19T07:09:26.337Z,1005.21
2017-03-19T07:10:35.299Z,1005.19
2017-03-19T07:11:44.248Z,1005.19
2017-03-19T07:12:53.197Z,1005.17
2017-03-19T07:14:02.494Z,1005.25
2017-03-19T07:15:11.468Z,1005.22
2017-03-19T07:16:20.427Z,1005.23
2017-03-19T07:17:29.703Z,1005.17
2017-03-19T07:18:38.663Z,1005.14
2017-03-19T07:19:47.929Z,1005.1
2017-03-19T07:20:56.885Z,1005.08
2017-03-19T07:22:05.835Z,1005.06
2017-03-19T07:23:14.787Z,1005.09
2017-03-19T07:24:23.746Z,1005.08
2017-03-19T07:25:33.000Z,1005.06
2017-03-19T07:26:41.987Z,1005.07
2017-03-19T07:27:50.945Z,1005.06
2017-03-19T07:28:59.903Z,1005.06
2017-03-19T07:30:08.894Z,1005.11
2017-03-19T07:31:18.155Z,1005.07
2017-03-19T07:32:27.109Z,1005.1
2017-03-19T07:33:36.405Z,1005.06
2017-03-19T07:34:45.368Z,1005.09
2017-03-19T07:35:54.326Z,1005.04
2017-03-19T07:37:03.535Z,1005.08
2017-03-19T07:38:12.491Z,1005.12
2017-03-19T07:39:21.445Z,1005.13
2017-03-19T07:40:30.403Z,1005.08
2017-03-19T07:41:39.362Z,1005.08
2017-03-19T07:42:48.570Z,1005.1
2017-03-19T07:43:57.533Z,1005.11
2017-03-19T07:45:06.494Z,1005.08
2017-03-19T07:46:15.448Z,1005.08
2017-03-19T07:47:24.405Z,1005.1
2017-03-19T07:48:33.662Z,1005.04
2017-03-19T07:49:42.627Z,1005.05
2017-03-19T07:50:51.616Z,1005.04
2017-03-19T07:52:00.569Z,1005.05
2017-03-19T07:53:09.522Z,1004.99
2017-03-19T07:54:18.731Z,1004.99
2017-03-19T07:55:27.691Z,1004.95
2017-03-19T07:56:36.982Z,1004.95
2017-03-19T07:57:45.936Z,1004.93
2017-03-19T07:58:54.891Z,1004.97
2017-03-19T08:00:04.165Z,1004.95
2017-03-19T08:01:13.207Z,1004.93
2017-03-19T08:02:22.482Z,1004.95
2017-03-19T08:03:31.440Z,1004.9
2017-03-19T08:04:40.402Z,1004.83
2017-03-19T08:05:49.613Z,1004.86
2017-03-19T08:06:58.565Z,1004.79
2017-03-19T08:08:07.523Z,1004.79
2017-03-19T08:09:16.480Z,1004.76
2017-03-19T08:10:25.475Z,1004.75
2017-03-19T08:11:34.682Z,1004.72
2017-03-19T08:12:43.728Z,1004.67
2017-03-19T08:13:52.772Z,1004.68
2017-03-19T08:15:01.725Z,1004.58
2017-03-19T08:16:10.682Z,1004.6
2017-03-19T08:17:19.956Z,1004.54
2017-03-19T08:18:28.919Z,1004.52
2017-03-19T08:19:37.881Z,1004.49
2017-03-19T08:20:46.834Z,1004.48
2017-03-19T08:21:55.781Z,1004.48
2017-03-19T08:23:04.981Z,1004.46
2017-03-19T08:24:13.937Z,1004.42
2017-03-19T08:25:22.903Z,1004.4
2017-03-19T08:26:31.907Z,1004.39
2017-03-19T08:27:41.035Z,1004.37
2017-03-19T08:28:50.241Z,1004.33
2017-03-19T08:29:59.200Z,1004.32
2017-03-19T08:31:08.165Z,1004.24
2017-03-19T08:32:17.123Z,1004.22
2017-03-19T08:33:26.081Z,1004.25
2017-03-19T08:34:35.346Z,1004.21
2017-03-19T08:35:44.300Z,1004.14
2017-03-19T08:36:53.255Z,1004.13
2017-03-19T08:38:02.210Z,1004.16
2017-03-19T08:39:11.266Z,1004.14
2017-03-19T08:40:20.495Z,1004.09
2017-03-19T08:41:29.458Z,1004.1
2017-03-19T08:42:38.412Z,1004.07
2017-03-19T08:43:47.369Z,1004.03
2017-03-19T08:44:56.331Z,1003.97
2017-03-19T08:46:05.284Z,1003.95
2017-03-19T08:47:14.234Z,1003.97
2017-03-19T08:48:23.227Z,1003.99
2017-03-19T08:49:32.182Z,1003.95
2017-03-19T08:50:41.228Z,1004
2017-03-19T08:51:50.519Z,1004
2017-03-19T08:52:59.478Z,1004.04
2017-03-19T08:54:08.437Z,1004.03
2017-03-19T08:55:17.407Z,1003.97
2017-03-19T08:56:26.754Z,1003.93
2017-03-19T08:57:35.797Z,1003.93
2017-03-19T08:58:44.796Z,1003.93
2017-03-19T08:59:53.760Z,1003.93
2017-03-19T09:01:02.720Z,1003.96
2017-03-19T09:02:11.977Z,1003.93
2017-03-19T09:03:20.935Z,1003.95
2017-03-19T09:04:29.902Z,1003.94
2017-03-19T09:05:38.866Z,1003.91
2017-03-19T09:06:47.824Z,1003.91
2017-03-19T09:07:57.072Z,1003.88
2017-03-19T09:09:06.032Z,1003.9
2017-03-19T09:10:15.075Z,1003.87
2017-03-19T09:11:24.032Z,1003.9
2017-03-19T09:12:33.310Z,1003.88
2017-03-19T09:13:42.563Z,1003.88
2017-03-19T09:14:51.515Z,1003.85
2017-03-19T09:16:00.498Z,1003.81
2017-03-19T09:17:09.485Z,1003.84
2017-03-19T09:18:18.446Z,1003.84
2017-03-19T09:19:27.700Z,1003.83
2017-03-19T09:20:36.652Z,1003.77
2017-03-19T09:21:45.606Z,1003.8
2017-03-19T09:22:54.558Z,1003.82
2017-03-19T09:24:03.520Z,1003.83
2017-03-19T09:25:12.733Z,1003.8
2017-03-19T09:26:22.012Z,1003.8
2017-03-19T09:27:31.375Z,1003.79
2017-03-19T09:28:40.337Z,1003.8
2017-03-19T09:29:49.304Z,1003.76
2017-03-19T09:30:58.564Z,1003.76
2017-03-19T09:32:07.517Z,1003.7
2017-03-19T09:33:16.481Z,1003.71
2017-03-19T09:34:25.441Z,1003.66
2017-03-19T09:35:34.393Z,1003.61
2017-03-19T09:36:43.650Z,1003.6
2017-03-19T09:37:52.607Z,1003.6
2017-03-19T09:39:01.573Z,1003.61
2017-03-19T09:40:10.858Z,1003.6
2017-03-19T09:41:19.820Z,1003.54
2017-03-19T09:42:29.163Z,1003.57
2017-03-19T09:43:38.132Z,1003.61
2017-03-19T09:44:47.105Z,1003.55
2017-03-19T09:45:56.064Z,1003.56
2017-03-19T09:47:05.020Z,1003.52
2017-03-19T09:48:14.310Z,1003.52
2017-03-19T09:49:23.587Z,1003.46
2017-03-19T09:50:32.545Z,1003.46
2017-03-19T09:51:41.499Z,1003.46
2017-03-19T09:52:50.466Z,1003.48
2017-03-19T09:53:59.726Z,1003.43
2017-03-19T09:55:08.687Z,1003.42
2017-03-19T09:56:17.641Z,1003.38
2017-03-19T09:57:26.622Z,1003.33
2017-03-19T09:58:35.581Z,1003.33
2017-03-19T09:59:44.845Z,1003.33
2017-03-19T10:00:53.811Z,1003.33
2017-03-19T10:02:02.769Z,1003.34
2017-03-19T10:03:11.726Z,1003.25
2017-03-19T10:04:20.698Z,1003.31
2017-03-19T10:05:30.238Z,1003.26
2017-03-19T10:06:39.194Z,1003.26
2017-03-19T10:07:48.150Z,1003.26
2017-03-19T10:08:57.115Z,1003.21
2017-03-19T10:10:06.078Z,1003.26
2017-03-19T10:11:15.338Z,1003.26
2017-03-19T10:12:24.293Z,1003.29
2017-03-19T10:13:33.254Z,1003.27
2017-03-19T10:14:42.218Z,1003.24
2017-03-19T10:15:51.261Z,1003.22
2017-03-19T10:17:00.518Z,1003.21
2017-03-19T10:18:09.468Z,1003.21
2017-03-19T10:19:18.435Z,1003.21
2017-03-19T10:20:27.405Z,1003.25
2017-03-19T10:21:36.357Z,1003.21
2017-03-19T10:22:45.566Z,1003.2
2017-03-19T10:23:54.617Z,1003.21
2017-03-19T10:25:03.586Z,1003.2
2017-03-19T10:26:12.537Z,1003.19
2017-03-19T10:27:21.541Z,1003.22
2017-03-19T10:28:30.835Z,1003.24
2017-03-19T10:29:39.802Z,1003.29
2017-03-19T10:30:49.082Z,1003.21
2017-03-19T10:31:58.031Z,1003.27
2017-03-19T10:33:06.988Z,1003.21
2017-03-19T10:34:16.243Z,1003.2
2017-03-19T10:35:25.203Z,1003.18
2017-03-19T10:36:34.161Z,1003.15
2017-03-19T10:37:43.117Z,1003.14
2017-03-19T10:38:52.079Z,1003.09
2017-03-19T10:40:01.346Z,1003.1
2017-03-19T10:41:10.634Z,1003.07
2017-03-19T10:42:19.589Z,1003.08
2017-03-19T10:43:28.549Z,1003
2017-03-19T10:44:37.509Z,1003
2017-03-19T10:45:46.768Z,1003.02
2017-03-19T10:46:55.718Z,1003.02
2017-03-19T10:48:04.670Z,1002.99
2017-03-19T10:49:13.956Z,1002.95
2017-03-19T10:50:22.951Z,1002.97
2017-03-19T10:51:32.208Z,1002.96
2017-03-19T10:52:41.194Z,1002.9
2017-03-19T10:53:50.154Z,1002.88
2017-03-19T10:54:59.118Z,1002.85
2017-03-19T10:56:08.108Z,1002.88
2017-03-19T10:57:17.634Z,1002.85
2017-03-19T10:58:26.592Z,1002.85
2017-03-19T10:59:35.635Z,1002.85
2017-03-19T11:00:44.625Z,1002.83
2017-03-19T11:01:53.593Z,1002.79
2017-03-19T11:03:02.850Z,1002.74
2017-03-19T11:04:11.820Z,1002.72
2017-03-19T11:05:20.788Z,1002.75
2017-03-19T11:06:29.745Z,1002.68
2017-03-19T11:07:38.701Z,1002.64
2017-03-19T11:08:48.005Z,1002.62
2017-03-19T11:09:56.964Z,1002.61
2017-03-19T11:11:05.924Z,1002.53
2017-03-19T11:12:14.887Z,1002.53
2017-03-19T11:13:23.850Z,1002.51
2017-03-19T11:14:33.119Z,1002.48
2017-03-19T11:15:42.489Z,1002.42
2017-03-19T11:16:51.460Z,1002.43
2017-03-19T11:18:00.419Z,1002.44
2017-03-19T11:19:09.376Z,1002.41
2017-03-19T11:20:18.637Z,1002.4
2017-03-19T11:21:27.588Z,1002.34
2017-03-19T11:22:36.535Z,1002.41
2017-03-19T11:23:45.504Z,1002.36
2017-03-19T11:24:54.455Z,1002.32
2017-03-19T11:26:03.716Z,1002.33
2017-03-19T11:27:12.674Z,1002.26
2017-03-19T11:28:21.630Z,1002.22
2017-03-19T11:29:30.588Z,1002.18
2017-03-19T11:30:39.546Z,1002.13
2017-03-19T11:31:48.888Z,1002.1
2017-03-19T11:32:57.846Z,1002.07
2017-03-19T11:34:06.801Z,1002.09
2017-03-19T11:35:15.764Z,1001.99
2017-03-19T11:36:24.720Z,1002
2017-03-19T11:37:34.009Z,1001.99
2017-03-19T11:38:42.967Z,1001.97
2017-03-19T11:39:51.941Z,1002
2017-03-19T11:41:00.898Z,1001.98
2017-03-19T11:42:09.937Z,1001.99
2017-03-19T11:43:19.191Z,1001.99
2017-03-19T11:44:28.154Z,1001.95
2017-03-19T11:45:37.109Z,1001.96
2017-03-19T11:46:46.150Z,1001.98
2017-03-19T11:47:55.105Z,1002
2017-03-19T11:49:04.366Z,1001.92
2017-03-19T11:50:13.326Z,1001.88
2017-03-19T11:51:22.280Z,1001.9
2017-03-19T11:52:31.229Z,1001.85
2017-03-19T11:53:40.190Z,1001.83
2017-03-19T11:54:49.453Z,1001.83
2017-03-19T11:55:58.407Z,1001.8
2017-03-19T11:57:07.361Z,1001.76
2017-03-19T11:58:16.319Z,1001.77
2017-03-19T11:59:25.605Z,1001.74
2017-03-19T12:00:35.146Z,1001.7
2017-03-19T12:01:44.098Z,1001.67
2017-03-19T12:02:53.082Z,1001.59
2017-03-19T12:04:02.037Z,1001.58
2017-03-19T12:05:10.991Z,1001.6
2017-03-19T12:06:20.240Z,1001.57
2017-03-19T12:07:29.198Z,1001.6
2017-03-19T12:08:38.155Z,1001.55
2017-03-19T12:09:47.123Z,1001.53
2017-03-19T12:10:56.080Z,1001.5
2017-03-19T12:12:05.340Z,1001.44
2017-03-19T12:13:14.302Z,1001.41
2017-03-19T12:14:23.265Z,1001.36
2017-03-19T12:15:32.265Z,1001.32
2017-03-19T12:16:41.313Z,1001.27
2017-03-19T12:17:50.562Z,1001.26
2017-03-19T12:18:59.558Z,1001.25
2017-03-19T12:20:08.521Z,1001.21
2017-03-19T12:21:17.472Z,1001.21
2017-03-19T12:22:26.424Z,1001.17
2017-03-19T12:23:35.639Z,1001.17
2017-03-19T12:24:44.601Z,1001.07
2017-03-19T12:25:53.554Z,1001.03
2017-03-19T12:27:02.509Z,1000.97
2017-03-19T12:28:11.476Z,1000.95
2017-03-19T12:29:20.732Z,1000.92
2017-03-19T12:30:29.692Z,1000.8
2017-03-19T12:31:39.055Z,1000.76
2017-03-19T12:32:48.014Z,1000.71
2017-03-19T12:33:56.980Z,1000.65
2017-03-19T12:35:06.199Z,1000.57
2017-03-19T12:36:15.158Z,1000.52
2017-03-19T12:37:24.110Z,1000.49
2017-03-19T12:38:33.154Z,1000.49
2017-03-19T12:39:42.144Z,1000.43
2017-03-19T12:40:51.403Z,1000.43
2017-03-19T12:42:00.350Z,1000.38
2017-03-19T12:43:09.316Z,1000.4
2017-03-19T12:44:18.279Z,1000.38
2017-03-19T12:45:27.250Z,1000.39
2017-03-19T12:46:36.585Z,1000.38
2017-03-19T12:47:45.542Z,1000.4
2017-03-19T12:48:54.509Z,1000.42
2017-03-19T12:50:03.792Z,1000.37
2017-03-19T12:51:12.762Z,1000.39
2017-03-19T12:52:22.023Z,1000.35
2017-03-19T12:53:30.989Z,1000.37
2017-03-19T12:54:39.954Z,1000.37
2017-03-19T12:55:48.912Z,1000.32
2017-03-19T12:56:57.867Z,1000.28
2017-03-19T12:58:07.075Z,1000.31
2017-03-19T12:59:16.030Z,1000.27
2017-03-19T13:00:25.000Z,1000.26
2017-03-19T13:01:33.956Z,1000.26
2017-03-19T13:02:42.910Z,1000.22
2017-03-19T13:03:52.256Z,1000.23
2017-03-19T13:05:01.219Z,1000.16
2017-03-19T13:06:10.181Z,1000.12
2017-03-19T13:07:19.135Z,1000.11
2017-03-19T13:08:28.095Z,1000.12
2017-03-19T13:09:37.404Z,1000.08
2017-03-19T13:10:46.382Z,1000.05
2017-03-19T13:11:55.353Z,999.96
2017-03-19T13:13:04.305Z,1000.02
2017-03-19T13:14:13.263Z,1000.05
2017-03-19T13:15:22.527Z,1000.07
2017-03-19T13:16:31.479Z,999.98
2017-03-19T13:17:40.432Z,999.93
2017-03-19T13:18:49.392Z,999.92
2017-03-19T13:19:58.356Z,999.88
2017-03-19T13:21:07.659Z,999.93
2017-03-19T13:22:16.613Z,1000
2017-03-19T13:23:25.563Z,1000.11
2017-03-19T13:24:34.523Z,1000.17
2017-03-19T13:25:43.474Z,1000.18
2017-03-19T13:26:52.678Z,1000.08
2017-03-19T13:28:01.636Z,1000.05
2017-03-19T13:29:10.600Z,999.96
2017-03-19T13:30:19.555Z,999.95
2017-03-19T13:31:28.622Z,999.98
2017-03-19T13:32:37.879Z,999.96
2017-03-19T13:33:46.836Z,999.95
2017-03-19T13:34:55.796Z,999.97
2017-03-19T13:36:04.751Z,999.98
2017-03-19T13:37:13.707Z,999.93
2017-03-19T13:38:22.966Z,999.84
2017-03-19T13:39:31.925Z,999.84
2017-03-19T13:40:41.219Z,999.79
2017-03-19T13:41:50.172Z,999.71
2017-03-19T13:42:59.129Z,999.72
2017-03-19T13:44:08.492Z,999.72
2017-03-19T13:45:17.450Z,999.73
2017-03-19T13:46:26.405Z,999.79
2017-03-19T13:47:35.356Z,999.81
2017-03-19T13:48:44.324Z,999.83
2017-03-19T13:49:53.577Z,999.89
2017-03-19T13:51:02.529Z,999.79
2017-03-19T13:52:11.486Z,999.78
2017-03-19T13:53:20.446Z,999.63
2017-03-19T13:54:29.413Z,999.63
2017-03-19T13:55:38.618Z,999.62
2017-03-19T13:56:47.569Z,999.63
2017-03-19T13:57:56.520Z,999.71
2017-03-19T13:59:05.483Z,999.77